Northlander — ZGAE — position and weather

sailwx.info

Track history (hours):
 
Tides and Currents Weather Stations Pressure Air Temp Water Temp Dewpoint Dewpoint Depression Visibility Wind Speed Wind Dir Waves Ship Positions

Northlander

Last reported at 2017-Jun-26 08:30 UTC. Time now 2017-Jun-26 08:48 UTC.
Position N 39°34' E 002°38'.

Length 38 m; draft 2.5 m.

Type: Pleasure craft. MMSI: 319078000.

Date/timePositionNaut miles runAvg speedWind from/ knotsBaromVisibWave heightAir tempDewpointWater temp
2017-Jun-26 08:30N 39°34' E 002°38'0 0.1
2017-Jun-26 08:00N 39°34' E 002°38'0 0.2
2017-Jun-26 07:30N 39°34' E 002°38'0 0.1
2017-Jun-26 07:00N 39°34' E 002°38'1 2.1
2017-Jun-26 06:30N 39°33' E 002°39'5 9.3
2017-Jun-26 06:00N 39°29' E 002°42'3 6.9
2017-Jun-26 05:30N 39°26' E 002°45'0 0.0
2017-Jun-26 05:00N 39°26' E 002°45'0 0.0
2017-Jun-26 04:30N 39°26' E 002°45'0 0.0
2017-Jun-26 04:00N 39°26' E 002°45'0 0.0
2017-Jun-26 03:30N 39°26' E 002°45'0 0.0
2017-Jun-26 03:00N 39°26' E 002°45'0 0.0
2017-Jun-26 02:30N 39°26' E 002°45'0 0.0
2017-Jun-26 02:00N 39°26' E 002°45'0 0.0
2017-Jun-26 01:30N 39°26' E 002°45'0 0.0
2017-Jun-26 01:00N 39°26' E 002°45'0 0.0
2017-Jun-26 00:30N 39°26' E 002°45'0 0.0
2017-Jun-26 00:00N 39°26' E 002°45'0 0.0
2017-Jun-25 23:30N 39°26' E 002°45'0 0.0
2017-Jun-25 23:00N 39°26' E 002°45'0 0.0
2017-Jun-25 22:30N 39°26' E 002°45'0 0.0
2017-Jun-25 22:00N 39°26' E 002°45'0 0.0
2017-Jun-25 21:30N 39°26' E 002°45'0 0.0
2017-Jun-25 21:00N 39°26' E 002°45'0 0.0
2017-Jun-25 20:30N 39°26' E 002°45'0 0.0
2017-Jun-25 20:00N 39°26' E 002°45'0 0.0
2017-Jun-25 19:30N 39°26' E 002°45'0 0.0
2017-Jun-25 19:00N 39°26' E 002°45'0 0.0
2017-Jun-25 18:30N 39°26' E 002°45'0 0.0
2017-Jun-25 18:00N 39°26' E 002°45'0 0.0
2017-Jun-25 17:30N 39°26' E 002°45'0 0.0
2017-Jun-25 17:00N 39°26' E 002°45'0 0.0
2017-Jun-25 16:30N 39°26' E 002°45'0 0.0
2017-Jun-25 16:00N 39°26' E 002°45'0 0.0
2017-Jun-25 15:30N 39°26' E 002°45'0 0.0
2017-Jun-25 15:00N 39°26' E 002°45'0 0.0
2017-Jun-25 14:30N 39°26' E 002°45'4 2.8
2017-Jun-25 13:09N 39°28' E 002°41'210.7
2017-Jun-25 13:00N 39°29' E 002°39'5 9.5
2017-Jun-25 12:30N 39°32' E 002°33'0 0.0
2017-Jun-25 12:00N 39°32' E 002°33'0 0.0
2017-Jun-25 11:27N 39°32' E 002°33'0 0.0
2017-Jun-25 10:54N 39°32' E 002°33'0 0.0
2017-Jun-25 10:30N 39°32' E 002°33'0 0.0
2017-Jun-25 09:57N 39°32' E 002°33'0 0.0
2017-Jun-25 09:27N 39°32' E 002°33'0 0.0
2017-Jun-25 09:00N 39°32' E 002°33'0 0.0
2017-Jun-25 08:30N 39°32' E 002°33'0 0.0
2017-Jun-25 08:00N 39°32' E 002°33'0 0.0
2017-Jun-25 07:30N 39°32' E 002°33'0 0.0
2017-Jun-25 07:00N 39°32' E 002°33'0 0.0
2017-Jun-25 06:30N 39°32' E 002°33'0 0.0
2017-Jun-25 06:00N 39°32' E 002°33'0 0.0
2017-Jun-25 05:27N 39°32' E 002°33'0 0.0
2017-Jun-25 04:57N 39°32' E 002°33'0 0.1
2017-Jun-25 04:30N 39°32' E 002°33'0 0.0
2017-Jun-25 04:00N 39°32' E 002°33'0 0.0
2017-Jun-25 03:21N 39°32' E 002°33'0 0.0
2017-Jun-25 02:39N 39°32' E 002°33'0 0.0
2017-Jun-25 02:30N 39°32' E 002°33'0 0.0
2017-Jun-25 01:57N 39°32' E 002°33'0 0.0
2017-Jun-25 01:27N 39°32' E 002°33'0 0.0
2017-Jun-25 01:00N 39°32' E 002°33'0 0.0
2017-Jun-25 00:21N 39°32' E 002°33'0 0.0
2017-Jun-25 00:00N 39°32' E 002°33'0 0.0
2017-Jun-24 23:30N 39°32' E 002°33'0 0.0
2017-Jun-24 22:57N 39°32' E 002°33'0 0.0
2017-Jun-24 22:30N 39°32' E 002°33'0 0.0
2017-Jun-24 22:00N 39°32' E 002°33'0 0.0
2017-Jun-24 21:30N 39°32' E 002°33'0 0.0
2017-Jun-24 20:57N 39°32' E 002°33'0 0.0
2017-Jun-24 20:24N 39°32' E 002°33'0 0.0
2017-Jun-24 19:25N 39°32' E 002°33'2 5.9
2017-Jun-24 19:00N 39°29' E 002°33'4 8.4
2017-Jun-24 18:30N 39°28' E 002°28'5 9.8
2017-Jun-24 18:00N 39°31' E 002°23'11 7.5
2017-Jun-24 16:36N 39°40' E 002°28'2 8.9
2017-Jun-24 16:24N 39°41' E 002°30'5 9.6
2017-Jun-24 15:53N 39°44' E 002°35'410.1
2017-Jun-24 15:30N 39°47' E 002°38'2 4.9
2017-Jun-24 15:00N 39°48' E 002°41'5 0.1
2017-Jun-22 19:21N 39°52' E 002°47'2 6.9
2017-Jun-22 19:00N 39°50' E 002°44'3 6.4
2017-Jun-22 18:30N 39°48' E 002°41'0 0.7
2017-Jun-22 18:00N 39°48' E 002°41'0 0.0
2017-Jun-22 17:23N 39°48' E 002°41'0 0.0
2017-Jun-22 16:51N 39°48' E 002°41'0 0.0
2017-Jun-22 16:27N 39°48' E 002°41'0 0.0
2017-Jun-22 15:51N 39°48' E 002°41'0 0.3
2017-Jun-22 15:30N 39°48' E 002°41'3 5.3
2017-Jun-22 14:59N 39°46' E 002°38'0 0.0
2017-Jun-22 13:03N 39°46' E 002°38'0 0.1
2017-Jun-22 12:57N 39°46' E 002°38'0 0.0
2017-Jun-22 12:27N 39°46' E 002°38'0 0.0
2017-Jun-22 10:51N 39°46' E 002°38'0 0.0
2017-Jun-22 10:21N 39°46' E 002°38'0 0.0
2017-Jun-22 08:15N 39°46' E 002°38'0 0.0
2017-Jun-22 07:51N 39°46' E 002°38'0 0.0
2017-Jun-22 07:09N 39°46' E 002°38'0 0.0
2017-Jun-22 06:15N 39°46' E 002°38'0 0.0
2017-Jun-22 05:57N 39°46' E 002°38'0 0.0
2017-Jun-22 05:21N 39°46' E 002°38'0 0.0
2017-Jun-22 04:57N 39°46' E 002°38'0 0.0
2017-Jun-22 04:30N 39°46' E 002°38'0 0.0
2017-Jun-22 03:57N 39°46' E 002°38'0 0.0
2017-Jun-22 03:30N 39°46' E 002°38'0 0.0
2017-Jun-22 02:54N 39°46' E 002°38'0 0.0
2017-Jun-22 02:30N 39°46' E 002°38'0 0.0
2017-Jun-22 01:54N 39°46' E 002°38'0 0.0
2017-Jun-22 01:27N 39°46' E 002°38'0 0.0
2017-Jun-22 00:51N 39°46' E 002°38'0 0.0
2017-Jun-22 00:24N 39°46' E 002°38'0 0.0
2017-Jun-22 00:00N 39°46' E 002°38'0 0.0
2017-Jun-21 23:30N 39°46' E 002°38'0 0.0
2017-Jun-21 22:36N 39°46' E 002°38'0 0.0
2017-Jun-21 22:18N 39°46' E 002°38'0 0.0
2017-Jun-21 22:00N 39°46' E 002°38'0 0.0
2017-Jun-21 21:30N 39°46' E 002°38'0 0.0
2017-Jun-21 21:00N 39°46' E 002°38'0 0.0
2017-Jun-21 20:30N 39°46' E 002°38'0 0.0
2017-Jun-21 19:24N 39°46' E 002°38'0 0.0
2017-Jun-21 18:18N 39°46' E 002°38'0 0.0
2017-Jun-21 17:59N 39°46' E 002°38'2 4.7
2017-Jun-21 17:30N 39°45' E 002°36'6 9.8
2017-Jun-21 16:53N 39°42' E 002°29'4 9.9
2017-Jun-21 16:30N 39°40' E 002°25'10 2.6
2017-Jun-21 12:45N 39°30' E 002°24'310.8
2017-Jun-21 12:30N 39°28' E 002°26'5 9.0
2017-Jun-21 12:00N 39°28' E 002°32'4 6.7
2017-Jun-21 11:26N 39°32' E 002°33'0 0.0
2017-Jun-21 10:59N 39°32' E 002°33'0 0.0
2017-Jun-21 10:26N 39°32' E 002°33'0 0.0
2017-Jun-21 09:59N 39°32' E 002°33'0 0.0
2017-Jun-21 09:29N 39°32' E 002°33'0 0.0
2017-Jun-21 08:59N 39°32' E 002°33'0 0.0
2017-Jun-21 08:26N 39°32' E 002°33'0 0.0
2017-Jun-21 07:59N 39°32' E 002°33'0 0.0
2017-Jun-21 07:29N 39°32' E 002°33'0 0.0
2017-Jun-21 06:56N 39°32' E 002°33'0 0.0
2017-Jun-21 06:29N 39°32' E 002°33'0 0.0
2017-Jun-21 05:59N 39°32' E 002°33'0 0.0
2017-Jun-21 05:29N 39°32' E 002°33'0 0.0
2017-Jun-21 04:53N 39°32' E 002°33'0 0.0
2017-Jun-21 04:29N 39°32' E 002°33'0 0.0
2017-Jun-21 03:44N 39°32' E 002°33'0 0.0
2017-Jun-21 03:26N 39°32' E 002°33'0 0.0
2017-Jun-21 02:59N 39°32' E 002°33'0 0.0
2017-Jun-21 02:29N 39°32' E 002°33'0 0.0
2017-Jun-21 01:59N 39°32' E 002°33'0 0.0
2017-Jun-21 01:29N 39°32' E 002°33'0 0.0
2017-Jun-21 00:53N 39°32' E 002°33'0 0.0
2017-Jun-21 00:29N 39°32' E 002°33'0 0.0
2017-Jun-20 23:59N 39°32' E 002°33'0 0.0
2017-Jun-20 23:29N 39°32' E 002°33'0 0.0
2017-Jun-20 22:56N 39°32' E 002°33'0 0.0
2017-Jun-20 22:23N 39°32' E 002°33'0 0.0
2017-Jun-20 21:59N 39°32' E 002°33'0 0.0
2017-Jun-20 21:26N 39°32' E 002°33'0 0.0
2017-Jun-20 20:59N 39°32' E 002°33'0 0.0
2017-Jun-20 20:29N 39°32' E 002°33'0 0.0
2017-Jun-20 19:56N 39°32' E 002°33'0 0.0
2017-Jun-20 19:20N 39°32' E 002°33'0 0.0
2017-Jun-20 18:56N 39°32' E 002°33'0 0.0
2017-Jun-20 18:29N 39°32' E 002°33'0 0.0
2017-Jun-20 17:59N 39°32' E 002°33'0 0.0
2017-Jun-20 17:26N 39°32' E 002°33'0 0.0
2017-Jun-20 16:59N 39°32' E 002°33'0 0.0
2017-Jun-20 16:26N 39°32' E 002°33'0 0.0
2017-Jun-20 15:59N 39°32' E 002°33'0 0.0
2017-Jun-20 15:29N 39°32' E 002°33'0 0.0
2017-Jun-20 14:59N 39°32' E 002°33'0 0.0
2017-Jun-20 13:59N 39°32' E 002°33'0 0.0
2017-Jun-20 13:29N 39°32' E 002°33'0 0.0
2017-Jun-20 12:53N 39°32' E 002°33'0 0.0
2017-Jun-20 12:26N 39°32' E 002°33'0 0.0
2017-Jun-20 11:53N 39°32' E 002°33'0 0.0
2017-Jun-20 11:29N 39°32' E 002°33'0 0.0
2017-Jun-20 10:53N 39°32' E 002°33'0 0.0
2017-Jun-20 10:23N 39°32' E 002°33'0 0.0
2017-Jun-20 09:56N 39°32' E 002°33'0 0.0
2017-Jun-20 09:29N 39°32' E 002°33'0 0.0
2017-Jun-20 08:59N 39°32' E 002°33'0 0.0
2017-Jun-20 08:29N 39°32' E 002°33'0 0.0
2017-Jun-20 07:59N 39°32' E 002°33'0 0.0
2017-Jun-20 07:23N 39°32' E 002°33'0 0.0
2017-Jun-20 06:59N 39°32' E 002°33'0 0.0
2017-Jun-20 06:29N 39°32' E 002°33'0 0.0
2017-Jun-20 05:56N 39°32' E 002°33'0 0.0
2017-Jun-20 05:23N 39°32' E 002°33'0 0.1
2017-Jun-20 04:59N 39°32' E 002°34'1 2.3
2017-Jun-20 04:30N 39°31' E 002°33'4 8.2
2017-Jun-20 04:01N 39°27' E 002°31'5 9.0
2017-Jun-20 03:30N 39°26' E 002°25'5 9.1
2017-Jun-20 03:00N 39°24' E 002°19'5 9.2
2017-Jun-20 02:30N 39°23' E 002°14'5 9.1
2017-Jun-20 02:00N 39°21' E 002°08'5 9.2
2017-Jun-20 01:30N 39°19' E 002°03'5 9.3
2017-Jun-20 01:00N 39°17' E 001°57'5 9.7
2017-Jun-20 00:30N 39°16' E 001°52'5 9.6
2017-Jun-20 00:00N 39°14' E 001°46'5 9.6
2017-Jun-19 23:30N 39°12' E 001°40'5 9.7
2017-Jun-19 23:01N 39°09' E 001°35'5 9.7
2017-Jun-19 22:30N 39°07' E 001°29'1 0.1
2017-Jun-19 09:01N 39°06' E 001°29'0 0.1
2017-Jun-19 08:59N 39°06' E 001°29'0 0.0
2017-Jun-19 08:28N 39°06' E 001°29'0 0.0
2017-Jun-19 07:53N 39°06' E 001°29'0 0.0
2017-Jun-19 07:27N 39°06' E 001°29'0 0.0
2017-Jun-19 07:00N 39°06' E 001°29'0 0.0
2017-Jun-19 06:14N 39°06' E 001°29'0 0.0
2017-Jun-19 05:53N 39°06' E 001°29'0 0.0
2017-Jun-19 05:30N 39°06' E 001°29'0 0.0
2017-Jun-19 04:57N 39°06' E 001°29'0 0.0
2017-Jun-19 04:29N 39°06' E 001°29'0 0.0
2017-Jun-19 03:51N 39°06' E 001°29'0 0.0
2017-Jun-19 03:30N 39°06' E 001°29'0 0.0
2017-Jun-19 02:58N 39°06' E 001°29'0 0.0
2017-Jun-19 01:43N 39°06' E 001°29'0 0.0
2017-Jun-19 01:30N 39°06' E 001°29'0 0.0
2017-Jun-19 01:00N 39°06' E 001°29'0 0.0
2017-Jun-18 23:48N 39°06' E 001°29'0 0.0
2017-Jun-18 23:24N 39°06' E 001°29'0 0.0
2017-Jun-18 22:58N 39°06' E 001°29'0 0.0
2017-Jun-18 22:23N 39°06' E 001°29'0 0.0
2017-Jun-18 21:59N 39°06' E 001°29'0 0.0
2017-Jun-18 19:59N 39°06' E 001°29'0 0.2
2017-Jun-18 18:35N 39°06' E 001°29'1 8.2
2017-Jun-18 18:30N 39°06' E 001°28'22 4.8
2017-Jun-18 13:57N 38°45' E 001°26'0 0.0
2017-Jun-18 12:46N 38°45' E 001°26'0 0.0
2017-Jun-18 12:28N 38°45' E 001°26'0 0.0
2017-Jun-18 10:51N 38°45' E 001°26'0 0.0
2017-Jun-18 10:21N 38°45' E 001°26'0 0.0
2017-Jun-18 08:21N 38°45' E 001°26'0 0.0
2017-Jun-18 05:57N 38°45' E 001°26'0 0.0
2017-Jun-18 03:10N 38°45' E 001°26'0 0.0
2017-Jun-17 23:57N 38°45' E 001°26'0 0.0
2017-Jun-17 23:22N 38°45' E 001°26'0 0.0
2017-Jun-17 22:57N 38°45' E 001°26'0 0.0
2017-Jun-17 22:27N 38°45' E 001°26'0 0.0
2017-Jun-17 21:16N 38°45' E 001°26'0 0.0
2017-Jun-17 20:39N 38°45' E 001°26'0 0.0
2017-Jun-17 19:09N 38°45' E 001°26'0 0.0
2017-Jun-17 03:09N 38°45' E 001°26'0 0.0
2017-Jun-17 01:27N 38°45' E 001°26'0 0.0
2017-Jun-16 22:51N 38°45' E 001°26'0 0.0
2017-Jun-16 22:21N 38°45' E 001°26'0 0.0
2017-Jun-16 12:51N 38°45' E 001°26'0 0.0
2017-Jun-16 12:21N 38°45' E 001°26'0 0.0
2017-Jun-16 11:09N 38°45' E 001°26'0 0.0
2017-Jun-16 10:57N 38°45' E 001°26'0 0.0
2017-Jun-16 10:27N 38°45' E 001°26'  
Track history (hours):
 
Tides and Currents Weather Stations Pressure Air Temp Water Temp Dewpoint Dewpoint Depression Visibility Wind Speed Wind Dir Waves Ship Positions

Northlander

Last reported at 2017-Jun-26 08:30 UTC. Time now 2017-Jun-26 08:48 UTC.
Position N 39°34' E 002°38'.

Length 38 m; draft 2.5 m.

Type: Pleasure craft. MMSI: 319078000.

Date/timePositionNaut miles runAvg speedWind from/ knotsBaromVisibWave heightAir tempDewpointWater temp
2017-Jun-26 08:30N 39°34' E 002°38'0 0.1
2017-Jun-26 08:00N 39°34' E 002°38'0 0.2
2017-Jun-26 07:30N 39°34' E 002°38'0 0.1
2017-Jun-26 07:00N 39°34' E 002°38'1 2.1
2017-Jun-26 06:30N 39°33' E 002°39'5 9.3
2017-Jun-26 06:00N 39°29' E 002°42'3 6.9
2017-Jun-26 05:30N 39°26' E 002°45'0 0.0
2017-Jun-26 05:00N 39°26' E 002°45'0 0.0
2017-Jun-26 04:30N 39°26' E 002°45'0 0.0
2017-Jun-26 04:00N 39°26' E 002°45'0 0.0
2017-Jun-26 03:30N 39°26' E 002°45'0 0.0
2017-Jun-26 03:00N 39°26' E 002°45'0 0.0
2017-Jun-26 02:30N 39°26' E 002°45'0 0.0
2017-Jun-26 02:00N 39°26' E 002°45'0 0.0
2017-Jun-26 01:30N 39°26' E 002°45'0 0.0
2017-Jun-26 01:00N 39°26' E 002°45'0 0.0
2017-Jun-26 00:30N 39°26' E 002°45'0 0.0
2017-Jun-26 00:00N 39°26' E 002°45'0 0.0
2017-Jun-25 23:30N 39°26' E 002°45'0 0.0
2017-Jun-25 23:00N 39°26' E 002°45'0 0.0
2017-Jun-25 22:30N 39°26' E 002°45'0 0.0
2017-Jun-25 22:00N 39°26' E 002°45'0 0.0
2017-Jun-25 21:30N 39°26' E 002°45'0 0.0
2017-Jun-25 21:00N 39°26' E 002°45'0 0.0
2017-Jun-25 20:30N 39°26' E 002°45'0 0.0
2017-Jun-25 20:00N 39°26' E 002°45'0 0.0
2017-Jun-25 19:30N 39°26' E 002°45'0 0.0
2017-Jun-25 19:00N 39°26' E 002°45'0 0.0
2017-Jun-25 18:30N 39°26' E 002°45'0 0.0
2017-Jun-25 18:00N 39°26' E 002°45'0 0.0
2017-Jun-25 17:30N 39°26' E 002°45'0 0.0
2017-Jun-25 17:00N 39°26' E 002°45'0 0.0
2017-Jun-25 16:30N 39°26' E 002°45'0 0.0
2017-Jun-25 16:00N 39°26' E 002°45'0 0.0
2017-Jun-25 15:30N 39°26' E 002°45'0 0.0
2017-Jun-25 15:00N 39°26' E 002°45'0 0.0
2017-Jun-25 14:30N 39°26' E 002°45'4 2.8
2017-Jun-25 13:09N 39°28' E 002°41'210.7
2017-Jun-25 13:00N 39°29' E 002°39'5 9.5
2017-Jun-25 12:30N 39°32' E 002°33'0 0.0
2017-Jun-25 12:00N 39°32' E 002°33'0 0.0
2017-Jun-25 11:27N 39°32' E 002°33'0 0.0
2017-Jun-25 10:54N 39°32' E 002°33'0 0.0
2017-Jun-25 10:30N 39°32' E 002°33'0 0.0
2017-Jun-25 09:57N 39°32' E 002°33'0 0.0
2017-Jun-25 09:27N 39°32' E 002°33'0 0.0
2017-Jun-25 09:00N 39°32' E 002°33'0 0.0
2017-Jun-25 08:30N 39°32' E 002°33'0 0.0
2017-Jun-25 08:00N 39°32' E 002°33'0 0.0
2017-Jun-25 07:30N 39°32' E 002°33'0 0.0
2017-Jun-25 07:00N 39°32' E 002°33'0 0.0
2017-Jun-25 06:30N 39°32' E 002°33'0 0.0
2017-Jun-25 06:00N 39°32' E 002°33'0 0.0
2017-Jun-25 05:27N 39°32' E 002°33'0 0.0
2017-Jun-25 04:57N 39°32' E 002°33'0 0.1
2017-Jun-25 04:30N 39°32' E 002°33'0 0.0
2017-Jun-25 04:00N 39°32' E 002°33'0 0.0
2017-Jun-25 03:21N 39°32' E 002°33'0 0.0
2017-Jun-25 02:39N 39°32' E 002°33'0 0.0
2017-Jun-25 02:30N 39°32' E 002°33'0 0.0
2017-Jun-25 01:57N 39°32' E 002°33'0 0.0
2017-Jun-25 01:27N 39°32' E 002°33'0 0.0
2017-Jun-25 01:00N 39°32' E 002°33'0 0.0
2017-Jun-25 00:21N 39°32' E 002°33'0 0.0
2017-Jun-25 00:00N 39°32' E 002°33'0 0.0
2017-Jun-24 23:30N 39°32' E 002°33'0 0.0
2017-Jun-24 22:57N 39°32' E 002°33'0 0.0
2017-Jun-24 22:30N 39°32' E 002°33'0 0.0
2017-Jun-24 22:00N 39°32' E 002°33'0 0.0
2017-Jun-24 21:30N 39°32' E 002°33'0 0.0
2017-Jun-24 20:57N 39°32' E 002°33'0 0.0
2017-Jun-24 20:24N 39°32' E 002°33'0 0.0
2017-Jun-24 19:25N 39°32' E 002°33'2 5.9
2017-Jun-24 19:00N 39°29' E 002°33'4 8.4
2017-Jun-24 18:30N 39°28' E 002°28'5 9.8
2017-Jun-24 18:00N 39°31' E 002°23'11 7.5
2017-Jun-24 16:36N 39°40' E 002°28'2 8.9
2017-Jun-24 16:24N 39°41' E 002°30'5 9.6
2017-Jun-24 15:53N 39°44' E 002°35'410.1
2017-Jun-24 15:30N 39°47' E 002°38'2 4.9
2017-Jun-24 15:00N 39°48' E 002°41'5 0.1
2017-Jun-22 19:21N 39°52' E 002°47'2 6.9
2017-Jun-22 19:00N 39°50' E 002°44'3 6.4
2017-Jun-22 18:30N 39°48' E 002°41'0 0.7
2017-Jun-22 18:00N 39°48' E 002°41'0 0.0
2017-Jun-22 17:23N 39°48' E 002°41'0 0.0
2017-Jun-22 16:51N 39°48' E 002°41'0 0.0
2017-Jun-22 16:27N 39°48' E 002°41'0 0.0
2017-Jun-22 15:51N 39°48' E 002°41'0 0.3
2017-Jun-22 15:30N 39°48' E 002°41'3 5.3
2017-Jun-22 14:59N 39°46' E 002°38'0 0.0
2017-Jun-22 13:03N 39°46' E 002°38'0 0.1
2017-Jun-22 12:57N 39°46' E 002°38'0 0.0
2017-Jun-22 12:27N 39°46' E 002°38'0 0.0
2017-Jun-22 10:51N 39°46' E 002°38'0 0.0
2017-Jun-22 10:21N 39°46' E 002°38'0 0.0
2017-Jun-22 08:15N 39°46' E 002°38'0 0.0
2017-Jun-22 07:51N 39°46' E 002°38'0 0.0
2017-Jun-22 07:09N 39°46' E 002°38'0 0.0
2017-Jun-22 06:15N 39°46' E 002°38'0 0.0
2017-Jun-22 05:57N 39°46' E 002°38'0 0.0
2017-Jun-22 05:21N 39°46' E 002°38'0 0.0
2017-Jun-22 04:57N 39°46' E 002°38'0 0.0
2017-Jun-22 04:30N 39°46' E 002°38'0 0.0
2017-Jun-22 03:57N 39°46' E 002°38'0 0.0
2017-Jun-22 03:30N 39°46' E 002°38'0 0.0
2017-Jun-22 02:54N 39°46' E 002°38'0 0.0
2017-Jun-22 02:30N 39°46' E 002°38'0 0.0
2017-Jun-22 01:54N 39°46' E 002°38'0 0.0
2017-Jun-22 01:27N 39°46' E 002°38'0 0.0
2017-Jun-22 00:51N 39°46' E 002°38'0 0.0
2017-Jun-22 00:24N 39°46' E 002°38'0 0.0
2017-Jun-22 00:00N 39°46' E 002°38'0 0.0
2017-Jun-21 23:30N 39°46' E 002°38'0 0.0
2017-Jun-21 22:36N 39°46' E 002°38'0 0.0
2017-Jun-21 22:18N 39°46' E 002°38'0 0.0
2017-Jun-21 22:00N 39°46' E 002°38'0 0.0
2017-Jun-21 21:30N 39°46' E 002°38'0 0.0
2017-Jun-21 21:00N 39°46' E 002°38'0 0.0
2017-Jun-21 20:30N 39°46' E 002°38'0 0.0
2017-Jun-21 19:24N 39°46' E 002°38'0 0.0
2017-Jun-21 18:18N 39°46' E 002°38'0 0.0
2017-Jun-21 17:59N 39°46' E 002°38'2 4.7
2017-Jun-21 17:30N 39°45' E 002°36'6 9.8
2017-Jun-21 16:53N 39°42' E 002°29'4 9.9
2017-Jun-21 16:30N 39°40' E 002°25'10 2.6
2017-Jun-21 12:45N 39°30' E 002°24'310.8
2017-Jun-21 12:30N 39°28' E 002°26'5 9.0
2017-Jun-21 12:00N 39°28' E 002°32'4 6.7
2017-Jun-21 11:26N 39°32' E 002°33'0 0.0
2017-Jun-21 10:59N 39°32' E 002°33'0 0.0
2017-Jun-21 10:26N 39°32' E 002°33'0 0.0
2017-Jun-21 09:59N 39°32' E 002°33'0 0.0
2017-Jun-21 09:29N 39°32' E 002°33'0 0.0
2017-Jun-21 08:59N 39°32' E 002°33'0 0.0
2017-Jun-21 08:26N 39°32' E 002°33'0 0.0
2017-Jun-21 07:59N 39°32' E 002°33'0 0.0
2017-Jun-21 07:29N 39°32' E 002°33'0 0.0
2017-Jun-21 06:56N 39°32' E 002°33'0 0.0
2017-Jun-21 06:29N 39°32' E 002°33'0 0.0
2017-Jun-21 05:59N 39°32' E 002°33'0 0.0
2017-Jun-21 05:29N 39°32' E 002°33'0 0.0
2017-Jun-21 04:53N 39°32' E 002°33'0 0.0
2017-Jun-21 04:29N 39°32' E 002°33'0 0.0
2017-Jun-21 03:44N 39°32' E 002°33'0 0.0
2017-Jun-21 03:26N 39°32' E 002°33'0 0.0
2017-Jun-21 02:59N 39°32' E 002°33'0 0.0
2017-Jun-21 02:29N 39°32' E 002°33'0 0.0
2017-Jun-21 01:59N 39°32' E 002°33'0 0.0
2017-Jun-21 01:29N 39°32' E 002°33'0 0.0
2017-Jun-21 00:53N 39°32' E 002°33'0 0.0
2017-Jun-21 00:29N 39°32' E 002°33'0 0.0
2017-Jun-20 23:59N 39°32' E 002°33'0 0.0
2017-Jun-20 23:29N 39°32' E 002°33'0 0.0
2017-Jun-20 22:56N 39°32' E 002°33'0 0.0
2017-Jun-20 22:23N 39°32' E 002°33'0 0.0
2017-Jun-20 21:59N 39°32' E 002°33'0 0.0
2017-Jun-20 21:26N 39°32' E 002°33'0 0.0
2017-Jun-20 20:59N 39°32' E 002°33'0 0.0
2017-Jun-20 20:29N 39°32' E 002°33'0 0.0
2017-Jun-20 19:56N 39°32' E 002°33'0 0.0
2017-Jun-20 19:20N 39°32' E 002°33'0 0.0
2017-Jun-20 18:56N 39°32' E 002°33'0 0.0
2017-Jun-20 18:29N 39°32' E 002°33'0 0.0
2017-Jun-20 17:59N 39°32' E 002°33'0 0.0
2017-Jun-20 17:26N 39°32' E 002°33'0 0.0
2017-Jun-20 16:59N 39°32' E 002°33'0 0.0
2017-Jun-20 16:26N 39°32' E 002°33'0 0.0
2017-Jun-20 15:59N 39°32' E 002°33'0 0.0
2017-Jun-20 15:29N 39°32' E 002°33'0 0.0
2017-Jun-20 14:59N 39°32' E 002°33'0 0.0
2017-Jun-20 13:59N 39°32' E 002°33'0 0.0
2017-Jun-20 13:29N 39°32' E 002°33'0 0.0
2017-Jun-20 12:53N 39°32' E 002°33'0 0.0
2017-Jun-20 12:26N 39°32' E 002°33'0 0.0
2017-Jun-20 11:53N 39°32' E 002°33'0 0.0
2017-Jun-20 11:29N 39°32' E 002°33'0 0.0
2017-Jun-20 10:53N 39°32' E 002°33'0 0.0
2017-Jun-20 10:23N 39°32' E 002°33'0 0.0
2017-Jun-20 09:56N 39°32' E 002°33'0 0.0
2017-Jun-20 09:29N 39°32' E 002°33'0 0.0
2017-Jun-20 08:59N 39°32' E 002°33'0 0.0
2017-Jun-20 08:29N 39°32' E 002°33'0 0.0
2017-Jun-20 07:59N 39°32' E 002°33'0 0.0
2017-Jun-20 07:23N 39°32' E 002°33'0 0.0
2017-Jun-20 06:59N 39°32' E 002°33'0 0.0
2017-Jun-20 06:29N 39°32' E 002°33'0 0.0
2017-Jun-20 05:56N 39°32' E 002°33'0 0.0
2017-Jun-20 05:23N 39°32' E 002°33'0 0.1
2017-Jun-20 04:59N 39°32' E 002°34'1 2.3
2017-Jun-20 04:30N 39°31' E 002°33'4 8.2
2017-Jun-20 04:01N 39°27' E 002°31'5 9.0
2017-Jun-20 03:30N 39°26' E 002°25'5 9.1
2017-Jun-20 03:00N 39°24' E 002°19'5 9.2
2017-Jun-20 02:30N 39°23' E 002°14'5 9.1
2017-Jun-20 02:00N 39°21' E 002°08'5 9.2
2017-Jun-20 01:30N 39°19' E 002°03'5 9.3
2017-Jun-20 01:00N 39°17' E 001°57'5 9.7
2017-Jun-20 00:30N 39°16' E 001°52'5 9.6
2017-Jun-20 00:00N 39°14' E 001°46'5 9.6
2017-Jun-19 23:30N 39°12' E 001°40'5 9.7
2017-Jun-19 23:01N 39°09' E 001°35'5 9.7
2017-Jun-19 22:30N 39°07' E 001°29'1 0.1
2017-Jun-19 09:01N 39°06' E 001°29'0 0.1
2017-Jun-19 08:59N 39°06' E 001°29'0 0.0
2017-Jun-19 08:28N 39°06' E 001°29'0 0.0
2017-Jun-19 07:53N 39°06' E 001°29'0 0.0
2017-Jun-19 07:27N 39°06' E 001°29'0 0.0
2017-Jun-19 07:00N 39°06' E 001°29'0 0.0
2017-Jun-19 06:14N 39°06' E 001°29'0 0.0
2017-Jun-19 05:53N 39°06' E 001°29'0 0.0
2017-Jun-19 05:30N 39°06' E 001°29'0 0.0
2017-Jun-19 04:57N 39°06' E 001°29'0 0.0
2017-Jun-19 04:29N 39°06' E 001°29'0 0.0
2017-Jun-19 03:51N 39°06' E 001°29'0 0.0
2017-Jun-19 03:30N 39°06' E 001°29'0 0.0
2017-Jun-19 02:58N 39°06' E 001°29'0 0.0
2017-Jun-19 01:43N 39°06' E 001°29'0 0.0
2017-Jun-19 01:30N 39°06' E 001°29'0 0.0
2017-Jun-19 01:00N 39°06' E 001°29'0 0.0
2017-Jun-18 23:48N 39°06' E 001°29'0 0.0
2017-Jun-18 23:24N 39°06' E 001°29'0 0.0
2017-Jun-18 22:58N 39°06' E 001°29'0 0.0
2017-Jun-18 22:23N 39°06' E 001°29'0 0.0
2017-Jun-18 21:59N 39°06' E 001°29'0 0.0
2017-Jun-18 19:59N 39°06' E 001°29'0 0.2
2017-Jun-18 18:35N 39°06' E 001°29'1 8.2
2017-Jun-18 18:30N 39°06' E 001°28'22 4.8
2017-Jun-18 13:57N 38°45' E 001°26'0 0.0
2017-Jun-18 12:46N 38°45' E 001°26'0 0.0
2017-Jun-18 12:28N 38°45' E 001°26'0 0.0
2017-Jun-18 10:51N 38°45' E 001°26'0 0.0
2017-Jun-18 10:21N 38°45' E 001°26'0 0.0
2017-Jun-18 08:21N 38°45' E 001°26'0 0.0
2017-Jun-18 05:57N 38°45' E 001°26'0 0.0
2017-Jun-18 03:10N 38°45' E 001°26'0 0.0
2017-Jun-17 23:57N 38°45' E 001°26'0 0.0
2017-Jun-17 23:22N 38°45' E 001°26'0 0.0
2017-Jun-17 22:57N 38°45' E 001°26'0 0.0
2017-Jun-17 22:27N 38°45' E 001°26'0 0.0
2017-Jun-17 21:16N 38°45' E 001°26'0 0.0
2017-Jun-17 20:39N 38°45' E 001°26'0 0.0
2017-Jun-17 19:09N 38°45' E 001°26'0 0.0
2017-Jun-17 03:09N 38°45' E 001°26'0 0.0
2017-Jun-17 01:27N 38°45' E 001°26'0 0.0
2017-Jun-16 22:51N 38°45' E 001°26'0 0.0
2017-Jun-16 22:21N 38°45' E 001°26'0 0.0
2017-Jun-16 12:51N 38°45' E 001°26'0 0.0
2017-Jun-16 12:21N 38°45' E 001°26'0 0.0
2017-Jun-16 11:09N 38°45' E 001°26'0 0.0
2017-Jun-16 10:57N 38°45' E 001°26'0 0.0
2017-Jun-16 10:27N 38°45' E 001°26'  

Dump ship's entire track history